createdAt,value
2019-01-14T00:00:28.488Z,8.20
2019-01-14T00:02:55.460Z,8.40
2019-01-14T00:05:22.104Z,8.30
2019-01-14T00:07:48.680Z,8.10
2019-01-14T00:10:15.127Z,8.40
2019-01-14T00:12:41.571Z,8.30
2019-01-14T00:15:08.700Z,8.20
2019-01-14T00:17:35.353Z,8.40
2019-01-14T00:20:03.628Z,8.40
2019-01-14T00:22:30.088Z,8.10
2019-01-14T00:24:56.544Z,7.80
2019-01-14T00:27:22.900Z,8.10
2019-01-14T00:29:49.628Z,7.70
2019-01-14T00:32:16.189Z,8.00
2019-01-14T00:34:42.652Z,7.70
2019-01-14T00:37:09.417Z,8.00
2019-01-14T00:39:35.860Z,7.80
2019-01-14T00:42:02.417Z,7.70
2019-01-14T00:44:28.983Z,8.00
2019-01-14T00:46:55.557Z,7.80
2019-01-14T00:49:22.010Z,7.70
2019-01-14T00:51:48.844Z,7.20
2019-01-14T00:54:15.378Z,7.30
2019-01-14T00:56:42.120Z,6.80
2019-01-14T00:59:08.832Z,6.40
2019-01-14T01:01:35.304Z,5.90
2019-01-14T01:04:01.762Z,5.90
2019-01-14T01:06:28.435Z,5.90
2019-01-14T01:08:54.980Z,5.90
2019-01-14T01:11:21.832Z,6.10
2019-01-14T01:13:48.436Z,6.20
2019-01-14T01:16:15.240Z,6.50
2019-01-14T01:18:41.713Z,6.70
2019-01-14T01:21:08.477Z,6.50
2019-01-14T01:23:35.056Z,6.80
2019-01-14T01:26:01.605Z,6.60
2019-01-14T01:28:28.190Z,6.70
2019-01-14T01:30:54.898Z,6.70
2019-01-14T01:33:21.374Z,6.50
2019-01-14T01:35:47.824Z,6.90
2019-01-14T01:38:14.401Z,6.80
2019-01-14T01:40:40.849Z,6.90
2019-01-14T01:43:07.604Z,6.80
2019-01-14T01:45:34.089Z,6.80
2019-01-14T01:48:00.540Z,6.80
2019-01-14T01:50:27.003Z,6.90
2019-01-14T01:52:53.364Z,6.80
2019-01-14T01:55:19.924Z,6.80
2019-01-14T01:57:46.381Z,6.90
2019-01-14T02:00:16.291Z,7.10
2019-01-14T02:02:42.945Z,7.20
2019-01-14T02:05:10.911Z,7.30
2019-01-14T02:07:37.939Z,7.10
2019-01-14T02:10:08.469Z,7.10
2019-01-14T02:12:34.913Z,7.10
2019-01-14T02:15:01.533Z,7.10
2019-01-14T02:17:27.992Z,7.10
2019-01-14T02:19:54.655Z,7.10
2019-01-14T02:22:21.114Z,7.10
2019-01-14T02:24:47.673Z,7.20
2019-01-14T02:27:14.256Z,7.40
2019-01-14T02:29:40.914Z,7.20
2019-01-14T02:32:07.852Z,7.30
2019-01-14T02:34:34.397Z,7.40
2019-01-14T02:37:01.227Z,7.10
2019-01-14T02:39:27.583Z,7.10
2019-01-14T02:41:54.146Z,7.10
2019-01-14T02:44:20.605Z,7.00
2019-01-14T02:46:47.106Z,7.30
2019-01-14T02:49:13.545Z,7.10
2019-01-14T02:51:40.028Z,7.30
2019-01-14T02:54:06.474Z,7.10
2019-01-14T02:56:32.944Z,7.00
2019-01-14T02:58:59.387Z,7.10
2019-01-14T03:01:25.965Z,7.20
2019-01-14T03:03:52.719Z,7.10
2019-01-14T03:06:19.175Z,7.10
2019-01-14T03:08:45.536Z,7.10
2019-01-14T03:11:11.976Z,7.10
2019-01-14T03:13:38.817Z,7.20
2019-01-14T03:16:05.468Z,7.40
2019-01-14T03:18:32.190Z,7.40
2019-01-14T03:20:58.744Z,7.60
2019-01-14T03:23:25.571Z,7.40
2019-01-14T03:25:58.163Z,7.60
2019-01-14T03:28:20.301Z,7.40
2019-01-14T03:30:46.751Z,7.40
2019-01-14T03:33:13.222Z,7.40
2019-01-14T03:35:40.011Z,7.60
2019-01-14T03:41:21.260Z,7.50
2019-01-14T03:43:47.648Z,7.40
2019-01-14T03:46:14.337Z,7.50
2019-01-14T03:48:40.823Z,7.40
2019-01-14T03:51:07.289Z,7.40
2019-01-14T03:53:33.841Z,7.40
2019-01-14T03:56:00.504Z,7.40
2019-01-14T03:58:27.060Z,7.40
2019-01-14T04:00:54.090Z,7.30
2019-01-14T04:03:20.647Z,7.10
2019-01-14T04:05:47.405Z,7.40
2019-01-14T04:08:14.116Z,7.40
2019-01-14T04:10:40.484Z,7.50
2019-01-14T04:13:07.048Z,7.40
2019-01-14T04:15:33.616Z,7.60
2019-01-14T04:18:00.068Z,7.40
2019-01-14T04:20:26.515Z,7.40
2019-01-14T04:22:52.990Z,7.40
2019-01-14T04:25:19.423Z,7.30
2019-01-14T04:27:46.002Z,7.30
2019-01-14T04:30:18.095Z,7.60
2019-01-14T04:32:44.565Z,7.10
2019-01-14T04:35:11.610Z,7.30
2019-01-14T04:37:38.275Z,7.10
2019-01-14T04:40:08.641Z,7.30
2019-01-14T04:42:35.089Z,7.10
2019-01-14T04:45:01.739Z,7.10
2019-01-14T04:47:28.312Z,6.70
2019-01-14T04:49:55.124Z,7.10
2019-01-14T04:52:21.485Z,6.80
2019-01-14T04:54:47.947Z,6.80
2019-01-14T04:57:14.608Z,6.90
2019-01-14T04:59:41.090Z,6.80
2019-01-14T05:02:07.632Z,6.80
2019-01-14T05:04:34.008Z,7.10
2019-01-14T05:07:00.451Z,7.10
2019-01-14T05:09:27.392Z,6.80
2019-01-14T05:11:54.080Z,6.90
2019-01-14T05:14:20.653Z,7.10
2019-01-14T05:16:47.087Z,7.20
2019-01-14T05:19:13.563Z,6.80
2019-01-14T05:21:40.386Z,6.90
2019-01-14T05:24:06.832Z,6.70
2019-01-14T05:26:33.404Z,6.80
2019-01-14T05:28:59.876Z,6.90
2019-01-14T05:31:26.450Z,6.80
2019-01-14T05:33:53.037Z,7.00
2019-01-14T05:36:19.587Z,7.00
2019-01-14T05:38:46.027Z,6.80
2019-01-14T05:41:12.503Z,7.10
2019-01-14T05:43:39.052Z,6.80
2019-01-14T05:46:05.883Z,7.10
2019-01-14T05:48:32.328Z,7.10
2019-01-14T05:50:58.807Z,7.10
2019-01-14T05:53:25.544Z,7.30
2019-01-14T05:55:52.117Z,7.10
2019-01-14T05:58:18.556Z,7.10
2019-01-14T06:00:46.536Z,7.10
2019-01-14T06:03:13.227Z,7.30
2019-01-14T06:05:39.609Z,7.20
2019-01-14T06:08:06.244Z,7.30
2019-01-14T06:10:32.714Z,7.10
2019-01-14T06:12:59.157Z,7.10
2019-01-14T06:15:25.825Z,7.00
2019-01-14T06:17:52.392Z,7.20
2019-01-14T06:20:23.456Z,7.30
2019-01-14T06:22:50.044Z,7.10
2019-01-14T06:25:16.982Z,7.10
2019-01-14T06:27:43.454Z,7.20
2019-01-14T06:30:18.769Z,7.10
2019-01-14T06:32:45.340Z,6.90
2019-01-14T06:35:12.506Z,6.80
2019-01-14T06:37:39.093Z,6.80
2019-01-14T06:40:09.263Z,7.10
2019-01-14T06:42:35.943Z,6.90
2019-01-14T06:45:04.710Z,6.80
2019-01-14T06:47:31.209Z,6.90
2019-01-14T06:49:57.856Z,6.80
2019-01-14T06:52:24.345Z,7.10
2019-01-14T06:54:50.897Z,6.80
2019-01-14T06:57:17.468Z,6.70
2019-01-14T06:59:44.049Z,7.00
2019-01-14T07:02:10.696Z,6.70
2019-01-14T07:04:37.185Z,6.80
2019-01-14T07:07:03.784Z,6.70
2019-01-14T07:09:30.272Z,6.80
2019-01-14T07:11:57.422Z,6.90
2019-01-14T07:14:24.000Z,6.80
2019-01-14T07:16:50.434Z,6.80
2019-01-14T07:19:17.018Z,6.80
2019-01-14T07:21:43.564Z,6.80
2019-01-14T07:24:10.168Z,6.70
2019-01-14T07:26:36.712Z,6.60
2019-01-14T07:29:03.312Z,6.80
2019-01-14T07:31:29.955Z,6.50
2019-01-14T07:33:56.424Z,6.60
2019-01-14T07:36:23.089Z,6.80
2019-01-14T07:38:49.561Z,6.70
2019-01-14T07:41:16.244Z,6.70
2019-01-14T07:43:42.697Z,6.60
2019-01-14T07:46:09.289Z,6.90
2019-01-14T07:48:35.739Z,6.60
2019-01-14T07:51:02.441Z,6.50
2019-01-14T07:53:28.880Z,6.40
2019-01-14T07:55:55.356Z,6.50
2019-01-14T07:58:22.111Z,6.50
2019-01-14T08:00:48.572Z,6.80
2019-01-14T08:03:15.035Z,6.80
2019-01-14T08:05:41.509Z,6.90
2019-01-14T08:08:13.934Z,6.80
2019-01-14T08:10:36.456Z,7.00
2019-01-14T08:13:03.448Z,6.80
2019-01-14T08:15:30.054Z,6.90
2019-01-14T08:17:56.512Z,6.80
2019-01-14T08:20:22.973Z,6.80
2019-01-14T08:22:49.491Z,6.90
2019-01-14T08:25:16.129Z,6.60
2019-01-14T08:27:42.820Z,6.50
2019-01-14T08:30:15.284Z,6.60
2019-01-14T08:32:41.856Z,6.50
2019-01-14T08:35:08.704Z,6.40
2019-01-14T08:37:35.185Z,6.20
2019-01-14T08:40:02.235Z,6.70
2019-01-14T08:42:28.984Z,6.20
2019-01-14T08:44:55.627Z,6.40
2019-01-14T08:47:22.120Z,6.20
2019-01-14T08:49:48.771Z,6.20
2019-01-14T08:52:15.625Z,6.30
2019-01-14T08:54:42.171Z,6.10
2019-01-14T08:57:08.570Z,5.90
2019-01-14T08:59:35.203Z,5.90
2019-01-14T09:02:01.792Z,6.00
2019-01-14T09:04:32.370Z,6.10
2019-01-14T09:06:57.034Z,5.50
2019-01-14T09:09:23.499Z,5.90
2019-01-14T09:11:49.947Z,5.50
2019-01-14T09:14:16.417Z,5.90
2019-01-14T09:16:42.897Z,5.70
2019-01-14T09:19:09.580Z,5.90
2019-01-14T09:21:36.037Z,5.60
2019-01-14T09:24:02.623Z,5.60
2019-01-14T09:26:29.267Z,5.70
2019-01-14T09:28:55.930Z,5.70
2019-01-14T09:31:23.880Z,5.80
2019-01-14T09:33:50.684Z,5.60
2019-01-14T09:36:17.232Z,5.70
2019-01-14T09:38:43.772Z,5.50
2019-01-14T09:41:10.304Z,5.60
2019-01-14T09:43:36.789Z,5.80
2019-01-14T09:46:03.352Z,5.90
2019-01-14T09:48:30.087Z,6.20
2019-01-14T09:50:56.543Z,6.80
2019-01-14T09:53:23.108Z,6.60
2019-01-14T09:55:49.675Z,6.50
2019-01-14T09:58:16.161Z,6.40
2019-01-14T10:00:42.708Z,6.50
2019-01-14T10:03:09.225Z,7.10
2019-01-14T10:05:35.768Z,7.50
2019-01-14T10:08:02.468Z,9.20
2019-01-14T10:10:28.996Z,11.00
2019-01-14T10:12:55.544Z,12.10
2019-01-14T10:15:22.809Z,12.50
2019-01-14T10:17:51.366Z,11.30
2019-01-14T10:20:18.251Z,10.90
2019-01-14T10:22:45.070Z,11.80
2019-01-14T10:25:12.180Z,11.80
2019-01-14T10:27:38.791Z,12.10
2019-01-14T10:30:14.656Z,12.40
2019-01-14T10:32:41.192Z,12.90
2019-01-14T10:35:07.865Z,13.00
2019-01-14T10:37:34.416Z,12.60
2019-01-14T10:40:01.344Z,13.10
2019-01-14T10:42:27.807Z,13.80
2019-01-14T10:44:54.266Z,11.70
2019-01-14T10:47:20.875Z,11.20
2019-01-14T10:49:47.325Z,10.90
2019-01-14T10:52:14.059Z,9.90
2019-01-14T10:54:40.516Z,9.50
2019-01-14T10:57:07.092Z,9.10
2019-01-14T10:59:33.649Z,8.30
2019-01-14T11:02:00.225Z,8.80
2019-01-14T11:04:26.788Z,8.40
2019-01-14T11:06:55.065Z,8.10
2019-01-14T11:09:21.603Z,8.30
2019-01-14T11:11:48.277Z,8.80
2019-01-14T11:14:14.720Z,10.20
2019-01-14T11:16:41.097Z,9.60
2019-01-14T11:19:07.551Z,10.40
2019-01-14T11:21:34.129Z,10.50
2019-01-14T11:24:00.865Z,10.10
2019-01-14T11:26:27.437Z,9.90
2019-01-14T11:28:53.871Z,9.00
2019-01-14T11:31:20.252Z,8.00
2019-01-14T11:33:46.791Z,7.50
2019-01-14T11:36:13.404Z,6.80
2019-01-14T11:38:42.368Z,5.90
2019-01-14T11:41:09.125Z,5.90
2019-01-14T11:43:35.789Z,5.60
2019-01-14T11:46:02.445Z,5.90
2019-01-14T11:48:29.046Z,5.90
2019-01-14T11:50:55.496Z,5.90
2019-01-14T11:53:22.168Z,5.90
2019-01-14T11:55:48.716Z,6.20
2019-01-14T11:58:15.401Z,6.40
2019-01-14T12:00:41.840Z,5.90
2019-01-14T12:03:08.695Z,5.90
2019-01-14T12:05:35.268Z,6.30
2019-01-14T12:08:02.243Z,7.60
2019-01-14T12:10:28.889Z,9.50
2019-01-14T12:12:55.354Z,10.00
2019-01-14T12:15:24.464Z,9.90
2019-01-14T12:17:51.144Z,9.50
2019-01-14T12:20:17.503Z,9.30
2019-01-14T12:22:44.247Z,9.40
2019-01-14T12:25:11.395Z,9.40
2019-01-14T12:27:37.873Z,9.50
2019-01-14T12:30:16.885Z,8.80
2019-01-14T12:32:43.321Z,8.80
2019-01-14T12:35:09.993Z,8.50
2019-01-14T12:37:36.550Z,9.10
2019-01-14T12:40:09.145Z,9.40
2019-01-14T12:42:35.614Z,9.70
2019-01-14T12:45:03.820Z,10.20
2019-01-14T12:47:30.446Z,11.00
2019-01-14T12:49:56.907Z,12.10
2019-01-14T12:52:23.359Z,12.40
2019-01-14T12:54:50.017Z,11.80
2019-01-14T12:57:16.760Z,12.80
2019-01-14T12:59:43.347Z,13.30
2019-01-14T13:02:10.135Z,12.40
2019-01-14T13:04:36.599Z,11.60
2019-01-14T13:07:03.168Z,11.80
2019-01-14T13:09:29.645Z,12.20
2019-01-14T13:11:56.361Z,11.50
2019-01-14T13:14:22.924Z,10.90
2019-01-14T13:16:49.264Z,10.40
2019-01-14T13:19:15.645Z,9.70
2019-01-14T13:21:42.197Z,9.20
2019-01-14T13:24:08.682Z,8.90
2019-01-14T13:26:35.118Z,8.70
2019-01-14T13:29:01.522Z,8.40
2019-01-14T13:31:28.068Z,8.40
2019-01-14T13:33:54.763Z,8.10
2019-01-14T13:36:21.391Z,7.90
2019-01-14T13:38:48.091Z,8.10
2019-01-14T13:41:14.561Z,7.90
2019-01-14T13:43:41.012Z,7.60
2019-01-14T13:46:07.593Z,6.50
2019-01-14T13:48:34.172Z,5.80
2019-01-14T13:51:00.625Z,5.30
2019-01-14T13:53:27.076Z,4.70
2019-01-14T13:55:59.428Z,4.90
2019-01-14T13:58:22.362Z,5.00
2019-01-14T14:00:49.184Z,5.20
2019-01-14T14:03:15.545Z,5.20
2019-01-14T14:05:42.023Z,5.00
2019-01-14T14:08:08.460Z,5.40
2019-01-14T14:10:35.138Z,5.10
2019-01-14T14:13:01.931Z,5.60
2019-01-14T14:15:28.509Z,5.40
2019-01-14T14:17:56.550Z,5.80
2019-01-14T14:20:23.389Z,6.60
2019-01-14T14:22:50.048Z,6.90
2019-01-14T14:25:16.770Z,7.90
2019-01-14T14:27:43.492Z,7.80
2019-01-14T14:30:19.382Z,8.50
2019-01-14T14:32:46.040Z,8.20
2019-01-14T14:35:12.719Z,8.60
2019-01-14T14:37:39.176Z,8.20
2019-01-14T14:40:08.250Z,7.40
2019-01-14T14:42:34.704Z,6.80
2019-01-14T14:45:01.298Z,6.80
2019-01-14T14:47:27.743Z,6.70
2019-01-14T14:49:54.188Z,6.50
2019-01-14T14:52:20.575Z,6.50
2019-01-14T14:54:47.016Z,6.40
2019-01-14T14:57:13.391Z,6.20
2019-01-14T14:59:40.127Z,6.40
2019-01-14T15:02:06.592Z,6.40
2019-01-14T15:04:33.041Z,6.20
2019-01-14T15:06:59.900Z,6.30
2019-01-14T15:09:31.632Z,6.20
2019-01-14T15:11:54.616Z,6.20
2019-01-14T15:14:20.974Z,6.30
2019-01-14T15:16:47.429Z,5.90
2019-01-14T15:19:13.963Z,5.90
2019-01-14T15:21:40.337Z,6.00
2019-01-14T15:24:07.039Z,6.40
2019-01-14T15:26:33.529Z,5.90
2019-01-14T15:28:59.960Z,6.00
2019-01-14T15:31:26.631Z,6.10
2019-01-14T15:33:52.979Z,5.90
2019-01-14T15:36:19.340Z,5.80
2019-01-14T15:38:45.684Z,5.60
2019-01-14T15:41:12.148Z,5.90
2019-01-14T15:43:38.620Z,5.90
2019-01-14T15:46:05.517Z,5.60
2019-01-14T15:48:32.080Z,5.70
2019-01-14T15:50:58.632Z,6.00
2019-01-14T15:53:25.301Z,5.90
2019-01-14T15:55:51.919Z,5.80
2019-01-14T15:58:18.643Z,5.60
2019-01-14T16:00:45.458Z,5.70
2019-01-14T16:03:11.941Z,5.90
2019-01-14T16:05:38.379Z,5.70
2019-01-14T16:08:05.222Z,6.00
2019-01-14T16:10:31.752Z,5.60
2019-01-14T16:12:58.417Z,5.60
2019-01-14T16:15:24.972Z,5.60
2019-01-14T16:17:51.751Z,5.60
2019-01-14T16:20:20.004Z,5.80
2019-01-14T16:22:47.031Z,5.90
2019-01-14T16:25:13.725Z,5.80
2019-01-14T16:27:40.273Z,5.50
2019-01-14T16:30:21.796Z,5.60
2019-01-14T16:32:48.357Z,5.60
2019-01-14T16:35:15.287Z,5.60
2019-01-14T16:37:41.840Z,5.40
2019-01-14T16:40:08.872Z,5.30
2019-01-14T16:42:35.496Z,5.30
2019-01-14T16:45:05.165Z,5.70
2019-01-14T16:47:31.831Z,5.50
2019-01-14T16:49:58.320Z,5.80
2019-01-14T16:52:24.893Z,5.50
2019-01-14T16:54:51.720Z,5.60
2019-01-14T16:57:18.356Z,5.60
2019-01-14T16:59:45.137Z,5.60
2019-01-14T17:02:11.596Z,5.60
2019-01-14T17:04:38.347Z,5.60
2019-01-14T17:07:04.919Z,5.60
2019-01-14T17:09:31.419Z,5.30
2019-01-14T17:11:57.873Z,5.60
2019-01-14T17:14:24.422Z,5.60
2019-01-14T17:16:51.000Z,5.40
2019-01-14T17:19:17.535Z,5.30
2019-01-14T17:21:44.368Z,5.20
2019-01-14T17:24:10.947Z,5.20
2019-01-14T17:26:37.424Z,5.30
2019-01-14T17:29:04.317Z,5.40
2019-01-14T17:31:30.788Z,5.30
2019-01-14T17:33:57.237Z,5.10
2019-01-14T17:36:23.825Z,4.90
2019-01-14T17:38:51.102Z,5.30
2019-01-14T17:41:17.642Z,5.40
2019-01-14T17:43:44.087Z,5.30
2019-01-14T17:46:10.580Z,5.40
2019-01-14T17:48:37.025Z,5.30
2019-01-14T17:51:03.571Z,5.00
2019-01-14T17:53:29.957Z,5.10
2019-01-14T17:55:56.563Z,5.10
2019-01-14T17:58:23.448Z,5.20
2019-01-14T18:00:49.841Z,5.00
2019-01-14T18:03:16.505Z,5.00
2019-01-14T18:05:42.961Z,5.10
2019-01-14T18:08:09.710Z,5.00
2019-01-14T18:10:40.161Z,5.00
2019-01-14T18:13:04.796Z,5.10
2019-01-14T18:15:31.351Z,4.90
2019-01-14T18:17:57.827Z,5.10
2019-01-14T18:20:24.460Z,5.20
2019-01-14T18:22:50.821Z,5.00
2019-01-14T18:25:17.412Z,5.00
2019-01-14T18:27:44.159Z,5.30
2019-01-14T18:30:16.187Z,5.40
2019-01-14T18:32:42.651Z,5.40
2019-01-14T18:35:09.216Z,5.10
2019-01-14T18:37:35.668Z,5.30
2019-01-14T18:40:05.913Z,5.10
2019-01-14T18:42:32.455Z,5.50
2019-01-14T18:44:58.935Z,5.50
2019-01-14T18:47:25.381Z,5.00
2019-01-14T18:49:51.860Z,5.10
2019-01-14T18:52:18.404Z,5.40
2019-01-14T18:54:44.982Z,5.30
2019-01-14T18:57:11.688Z,5.10
2019-01-14T18:59:38.305Z,5.00
2019-01-14T19:02:04.756Z,5.00
2019-01-14T19:04:31.256Z,5.10
2019-01-14T19:06:57.832Z,5.30
2019-01-14T19:09:24.278Z,5.30
2019-01-14T19:11:50.747Z,5.40
2019-01-14T19:14:17.371Z,5.30
2019-01-14T19:16:43.952Z,5.30
2019-01-14T19:19:10.399Z,5.40
2019-01-14T19:21:36.885Z,5.30
2019-01-14T19:24:03.675Z,5.40
2019-01-14T19:26:30.511Z,5.30
2019-01-14T19:28:57.068Z,5.30
2019-01-14T19:31:23.646Z,5.30
2019-01-14T19:33:50.596Z,5.20
2019-01-14T19:36:17.156Z,5.10
2019-01-14T19:38:43.516Z,5.30
2019-01-14T19:41:10.102Z,5.40
2019-01-14T19:43:36.555Z,5.10
2019-01-14T19:46:03.215Z,5.00
2019-01-14T19:48:29.560Z,5.10
2019-01-14T19:50:55.904Z,5.40
2019-01-14T19:53:22.380Z,5.30
2019-01-14T19:55:48.929Z,5.40
2019-01-14T19:58:15.412Z,5.20
2019-01-14T20:00:41.848Z,5.30
2019-01-14T20:03:08.231Z,5.40
2019-01-14T20:05:34.929Z,5.30
2019-01-14T20:08:01.793Z,5.10
2019-01-14T20:10:28.228Z,4.90
2019-01-14T20:12:54.807Z,5.00
2019-01-14T20:15:21.470Z,5.10
2019-01-14T20:17:48.136Z,5.10
2019-01-14T20:20:14.980Z,4.70
2019-01-14T20:22:41.709Z,4.70
2019-01-14T20:25:10.262Z,4.70
2019-01-14T20:27:37.008Z,4.80
2019-01-14T20:30:12.900Z,4.90
2019-01-14T20:32:39.647Z,4.80
2019-01-14T20:35:06.349Z,4.90
2019-01-14T20:37:32.916Z,4.80
2019-01-14T20:39:59.827Z,4.90
2019-01-14T20:42:26.380Z,4.80
2019-01-14T20:44:52.944Z,5.10
2019-01-14T20:47:19.404Z,5.00
2019-01-14T20:49:45.968Z,5.20
2019-01-14T20:52:12.621Z,5.00
2019-01-14T20:54:39.125Z,5.10
2019-01-14T20:57:05.790Z,5.30
2019-01-14T20:59:34.612Z,5.20
2019-01-14T21:02:00.685Z,5.20
2019-01-14T21:04:27.164Z,4.90
2019-01-14T21:06:53.613Z,5.00
2019-01-14T21:09:20.207Z,5.00
2019-01-14T21:11:48.187Z,5.10
2019-01-14T21:14:14.757Z,4.80
2019-01-14T21:16:41.345Z,4.80
2019-01-14T21:19:08.029Z,4.60
2019-01-14T21:21:34.501Z,4.80
2019-01-14T21:24:01.148Z,5.00
2019-01-14T21:26:27.747Z,4.90
2019-01-14T21:28:54.192Z,4.80
2019-01-14T21:31:21.041Z,5.00
2019-01-14T21:33:47.486Z,4.90
2019-01-14T21:36:14.323Z,5.00
2019-01-14T21:38:40.833Z,5.10
2019-01-14T21:41:07.630Z,4.70
2019-01-14T21:43:34.180Z,5.00
2019-01-14T21:46:00.989Z,4.80
2019-01-14T21:48:27.455Z,4.70
2019-01-14T21:50:53.812Z,5.20
2019-01-14T21:53:20.188Z,5.10
2019-01-14T21:55:46.649Z,4.70
2019-01-14T21:58:13.120Z,4.90
2019-01-14T22:00:39.672Z,5.00
2019-01-14T22:03:06.335Z,5.00
2019-01-14T22:05:32.785Z,5.10
2019-01-14T22:07:59.170Z,4.70
2019-01-14T22:10:26.116Z,4.70
2019-01-14T22:12:52.796Z,4.90
2019-01-14T22:15:19.472Z,4.90
2019-01-14T22:17:45.979Z,5.20
2019-01-14T22:20:15.637Z,5.00
2019-01-14T22:22:42.672Z,5.00
2019-01-14T22:25:09.427Z,5.10
2019-01-14T22:27:36.160Z,4.90
2019-01-14T22:30:12.424Z,5.10
2019-01-14T22:32:38.967Z,5.10
2019-01-14T22:35:05.552Z,5.00
2019-01-14T22:37:32.000Z,5.00
2019-01-14T22:39:58.483Z,4.80
2019-01-14T22:42:24.931Z,5.20
2019-01-14T22:44:51.428Z,5.00
2019-01-14T22:47:18.032Z,4.80
2019-01-14T22:49:44.628Z,4.80
2019-01-14T22:52:11.172Z,4.80
2019-01-14T22:54:37.552Z,4.80
2019-01-14T22:57:04.200Z,4.60
2019-01-14T22:59:30.684Z,4.50
2019-01-14T23:01:57.722Z,4.70
2019-01-14T23:04:24.183Z,4.40
2019-01-14T23:06:50.637Z,4.30
2019-01-14T23:09:17.218Z,4.50
2019-01-14T23:11:43.928Z,4.50
2019-01-14T23:14:10.408Z,4.20
2019-01-14T23:16:36.876Z,4.20
2019-01-14T23:19:03.631Z,4.20
2019-01-14T23:21:30.095Z,4.30
2019-01-14T23:23:56.552Z,4.20
2019-01-14T23:26:23.218Z,4.00
2019-01-14T23:28:49.571Z,4.10
2019-01-14T23:31:15.944Z,4.00
2019-01-14T23:33:42.805Z,4.20
2019-01-14T23:36:09.843Z,4.00
2019-01-14T23:38:36.309Z,4.10
2019-01-14T23:41:03.459Z,4.20
2019-01-14T23:43:30.024Z,4.00
2019-01-14T23:45:56.428Z,3.90
2019-01-14T23:48:22.880Z,3.90
2019-01-14T23:50:49.732Z,4.00
2019-01-14T23:53:16.315Z,4.20
2019-01-14T23:55:42.868Z,4.00
2019-01-14T23:58:09.440Z,3.90
